メインページ
METAR-TAF:

METAR-TAF

空港 :

ブリュッセル, ベルギー

ブリュッセル空港

緯度: 50-54N, 経度: 004-32E, 海抜: 55m

現時点の気象観測

当レポートは24分前の09:20(UTC)に作成
東/北東の風 12kt
気温 10°C
湿度 62%
気圧 1028 hPa
視程10km以上
1,500メートル以下は雲なし、積乱雲なし

METAR: EBBR 250920Z 06012KT CAVOK 10/03 Q1028 NOSIG

時間: 10:44 (09:44 UTC)

予報

当レポートは4時間24分前の05:20(UTC)に作成
予報は25日の 06時(UTC)から 26日の 12時(UTC)まで有効
北東の風 8kt
視程10km以上
1,500メートル以下は雲なし、積乱雲なし
確率 30% :
25日の 11時(UTC)から 25日の 17時(UTC)まで一時的に
東/北東の風 15kt、最大25ktの突風を伴う
確率 30% :
26日の 04時(UTC)から 26日の 07時(UTC)まで一時的に
高度700ftの千切れ雲あり

TAF: EBBR 250520Z 2506/2612 05008KT CAVOK PROB30 TEMPO 2511/2517 06015G25KT PROB30 TEMPO 2604/2607 BKN007

4,000以上の空港の気象観測と天気予報(METAR報とTAF報)

利用可能な観測所は地図上に黄色い丸と赤い丸で示す。

丸の上にカーソルを重ねると観測所名を参照できる。

次にクリックすると気象観測と天気予報を参照できる。

マップの切り替え:黒色「×」印の緑ボタンをクリックして拡大、「-」印の緑ボタンをクリックして縮小、緑色の三角印をクリックして隣りの地図に切り替え


METAR-TAF: